Time;durP1;ratioP1;P1;durP2;ratioP2;P2;SDS_P1;SDS_P2;PMS_P1;PMS_P2;Temp;Humidity;BMP_temperature;BMP_pressure;BME280_temperature;BME280_humidity;BME280_pressure;Samples;Min_cycle;Max_cycle;Signal;HPM_P1;HPM_P2
2022/08/28 00:00:15;;;;;;;6.43;2.63;;;;;;;;;;5085944;28;20468;-71
2022/08/28 00:02:42;;;;;;;6.93;3.03;;;;;;;;;;5090522;28;20487;-70
2022/08/28 00:05:11;;;;;;;9.80;2.60;;;;;;;;;;5090337;28;21081;-71
2022/08/28 00:07:42;;;;;;;9.57;3.97;;;;;;;;;;5093015;28;20830;-71
2022/08/28 00:10:10;;;;;;;10.37;3.13;;;;;;;;;;5091740;28;20536;-71
2022/08/28 00:12:38;;;;;;;10.50;3.37;;;;;;;;;;5092199;28;20506;-70
2022/08/28 00:15:07;;;;;;;8.77;3.60;;;;;;;;;;5093441;28;20550;-69
2022/08/28 00:17:34;;;;;;;15.63;3.53;;;;;;;;;;5088775;28;20479;-70
2022/08/28 00:20:01;;;;;;;8.33;2.47;;;;;;;;;;5092081;28;20865;-71
2022/08/28 00:22:29;;;;;;;5.97;3.10;;;;;;;;;;5078456;28;20910;-70
2022/08/28 00:24:57;;;;;;;10.53;3.63;;;;;;;;;;5079820;28;20554;-70
2022/08/28 00:30:13;;;;;;;6.90;2.70;;;;;;;;;;5072301;28;21081;-69
2022/08/28 00:32:40;;;;;;;6.63;2.90;;;;;;;;;;5072483;28;20461;-70
2022/08/28 00:35:08;;;;;;;14.87;4.33;;;;;;;;;;5092620;28;20465;-70
2022/08/28 00:37:35;;;;;;;10.10;2.93;;;;;;;;;;5092510;28;20851;-71
2022/08/28 00:40:04;;;;;;;10.97;3.10;;;;;;;;;;5091875;28;20452;-70
2022/08/28 00:42:34;;;;;;;5.70;2.97;;;;;;;;;;5092269;28;20621;-70
2022/08/28 00:45:01;;;;;;;10.00;3.00;;;;;;;;;;5091490;28;20467;-71
2022/08/28 00:47:29;;;;;;;13.73;2.80;;;;;;;;;;5091934;28;20463;-71
2022/08/28 00:49:56;;;;;;;5.93;2.27;;;;;;;;;;5091904;28;20462;-71
2022/08/28 00:52:24;;;;;;;14.97;2.77;;;;;;;;;;5090914;28;20701;-70
2022/08/28 00:54:53;;;;;;;9.70;4.03;;;;;;;;;;5092045;28;20459;-69
2022/08/28 00:57:23;;;;;;;11.07;3.63;;;;;;;;;;5094662;28;20481;-71
2022/08/28 00:59:50;;;;;;;11.77;3.00;;;;;;;;;;5097047;28;20459;-70
2022/08/28 01:02:17;;;;;;;9.83;2.50;;;;;;;;;;5094674;28;20483;-71
2022/08/28 01:04:45;;;;;;;10.37;2.60;;;;;;;;;;5094641;28;20698;-71
2022/08/28 01:07:13;;;;;;;5.37;2.80;;;;;;;;;;5095303;28;20522;-71
2022/08/28 01:09:43;;;;;;;12.17;2.60;;;;;;;;;;5095545;28;20597;-71
2022/08/28 01:12:13;;;;;;;7.93;3.30;;;;;;;;;;5096524;28;21037;-71
2022/08/28 01:14:44;;;;;;;11.80;3.50;;;;;;;;;;5097035;28;20482;-70
2022/08/28 01:17:13;;;;;;;9.47;3.10;;;;;;;;;;5090326;28;20475;-72
2022/08/28 01:19:44;;;;;;;7.93;2.67;;;;;;;;;;5076452;28;20792;-71
2022/08/28 01:22:18;;;;;;;11.97;3.87;;;;;;;;;;5076027;28;20488;-70
2022/08/28 01:24:46;;;;;;;8.40;2.87;;;;;;;;;;5076414;28;20523;-70
2022/08/28 01:27:13;;;;;;;11.33;3.20;;;;;;;;;;5074888;28;20464;-70
2022/08/28 01:29:41;;;;;;;11.20;2.93;;;;;;;;;;5073787;28;20448;-70
2022/08/28 01:32:08;;;;;;;11.77;2.87;;;;;;;;;;5075437;28;20452;-70
2022/08/28 01:34:35;;;;;;;10.30;3.00;;;;;;;;;;5074495;28;20467;-70
2022/08/28 01:37:03;;;;;;;8.80;3.80;;;;;;;;;;5075051;28;20491;-70
2022/08/28 01:39:32;;;;;;;12.23;3.10;;;;;;;;;;5074665;28;20461;-70
2022/08/28 01:42:02;;;;;;;10.80;3.07;;;;;;;;;;5074611;28;20480;-70
2022/08/28 01:44:32;;;;;;;15.00;4.30;;;;;;;;;;5074479;28;20452;-70
2022/08/28 01:47:02;;;;;;;7.30;2.63;;;;;;;;;;5073875;28;20459;-70
2022/08/28 01:49:29;;;;;;;8.27;2.80;;;;;;;;;;5074543;28;20464;-70
2022/08/28 01:51:57;;;;;;;14.17;3.80;;;;;;;;;;5075535;28;20510;-70
2022/08/28 01:54:25;;;;;;;10.80;2.80;;;;;;;;;;5074586;28;20580;-70
2022/08/28 01:56:52;;;;;;;12.20;2.90;;;;;;;;;;5074820;28;20452;-70
2022/08/28 01:59:21;;;;;;;13.60;3.53;;;;;;;;;;5085382;28;20873;-70
2022/08/28 02:01:49;;;;;;;11.60;3.43;;;;;;;;;;5080929;28;20481;-70
2022/08/28 02:04:16;;;;;;;8.57;3.20;;;;;;;;;;5076416;28;20460;-70
2022/08/28 02:06:43;;;;;;;11.00;3.20;;;;;;;;;;5076475;28;20460;-70
2022/08/28 02:09:10;;;;;;;9.10;2.90;;;;;;;;;;5094990;28;20455;-70
2022/08/28 02:11:46;;;;;;;10.13;3.40;;;;;;;;;;5095622;28;20541;-69
2022/08/28 02:14:13;;;;;;;7.13;2.80;;;;;;;;;;5089999;28;20463;-71
2022/08/28 02:16:41;;;;;;;12.67;3.03;;;;;;;;;;5076057;28;20461;-68
2022/08/28 02:19:08;;;;;;;11.13;3.20;;;;;;;;;;5075837;28;20894;-70
2022/08/28 02:21:38;;;;;;;10.60;5.10;;;;;;;;;;5075872;28;20484;-71
2022/08/28 02:24:05;;;;;;;11.40;2.83;;;;;;;;;;5081768;28;20885;-71
2022/08/28 02:26:33;;;;;;;5.60;2.67;;;;;;;;;;5095508;28;20443;-71
2022/08/28 02:29:00;;;;;;;11.50;3.57;;;;;;;;;;5095250;28;20957;-69
2022/08/28 02:31:27;;;;;;;9.40;3.10;;;;;;;;;;5095272;28;20456;-70
2022/08/28 02:33:55;;;;;;;11.23;3.53;;;;;;;;;;5094759;28;20504;-71
2022/08/28 02:36:22;;;;;;;8.27;2.57;;;;;;;;;;5095291;28;20482;-70
2022/08/28 02:38:51;;;;;;;14.73;3.50;;;;;;;;;;5094895;28;20468;-71
2022/08/28 02:41:18;;;;;;;9.77;2.90;;;;;;;;;;5095360;28;20483;-71
2022/08/28 02:43:47;;;;;;;9.47;3.47;;;;;;;;;;5088297;28;20551;-71
2022/08/28 02:46:14;;;;;;;14.23;3.53;;;;;;;;;;5095266;28;20513;-71
2022/08/28 02:48:41;;;;;;;6.60;2.87;;;;;;;;;;5095210;28;20896;-71
2022/08/28 02:51:11;;;;;;;6.73;3.00;;;;;;;;;;5095129;28;20465;-71
2022/08/28 02:53:38;;;;;;;9.33;3.70;;;;;;;;;;5095187;28;20467;-69
2022/08/28 02:56:06;;;;;;;11.10;2.90;;;;;;;;;;5095053;28;20448;-70
2022/08/28 02:58:34;;;;;;;10.30;2.87;;;;;;;;;;5096203;28;20456;-70
2022/08/28 03:01:02;;;;;;;11.40;3.90;;;;;;;;;;5093099;28;20544;-71
2022/08/28 03:03:31;;;;;;;13.33;3.37;;;;;;;;;;5093187;28;20464;-71
2022/08/28 03:06:01;;;;;;;16.40;3.73;;;;;;;;;;5094230;28;20463;-71
2022/08/28 03:08:31;;;;;;;16.73;3.97;;;;;;;;;;5094416;28;20948;-71
2022/08/28 03:10:58;;;;;;;5.87;2.77;;;;;;;;;;5094223;28;20512;-70
2022/08/28 03:13:25;;;;;;;6.90;3.00;;;;;;;;;;5093392;28;20456;-71
2022/08/28 03:15:53;;;;;;;5.80;2.60;;;;;;;;;;5094034;28;20900;-69
2022/08/28 03:18:29;;;;;;;7.83;2.60;;;;;;;;;;5092785;28;21086;-70
2022/08/28 03:20:57;;;;;;;13.67;3.30;;;;;;;;;;5091634;28;20448;-70
2022/08/28 03:23:26;;;;;;;9.60;2.70;;;;;;;;;;5094172;28;20466;-70
2022/08/28 03:25:57;;;;;;;10.87;2.77;;;;;;;;;;5094080;28;20454;-70
2022/08/28 03:28:25;;;;;;;19.20;2.63;;;;;;;;;;5094568;28;20524;-70
2022/08/28 03:30:54;;;;;;;8.20;2.87;;;;;;;;;;5094263;28;20440;-70
2022/08/28 03:33:22;;;;;;;9.43;3.00;;;;;;;;;;5094593;28;20463;-70
2022/08/28 03:35:49;;;;;;;8.63;3.40;;;;;;;;;;5094505;28;20447;-70
2022/08/28 03:38:16;;;;;;;12.97;4.43;;;;;;;;;;5094875;28;20452;-70
2022/08/28 03:40:45;;;;;;;9.03;2.73;;;;;;;;;;5093591;28;20458;-70
2022/08/28 03:43:15;;;;;;;17.97;3.83;;;;;;;;;;5095804;28;20487;-70
2022/08/28 03:45:51;;;;;;;11.23;4.00;;;;;;;;;;5094351;28;20801;-70
2022/08/28 03:48:19;;;;;;;12.50;3.67;;;;;;;;;;5095355;28;20455;-70
2022/08/28 03:50:46;;;;;;;10.50;2.63;;;;;;;;;;5094967;28;20456;-70
2022/08/28 03:53:14;;;;;;;14.73;3.50;;;;;;;;;;5094128;28;20495;-70
2022/08/28 03:55:42;;;;;;;21.87;4.10;;;;;;;;;;5094942;28;20926;-69
2022/08/28 03:58:09;;;;;;;14.23;3.30;;;;;;;;;;5094384;28;20521;-70
2022/08/28 04:00:38;;;;;;;8.80;2.60;;;;;;;;;;5093214;28;20586;-69
2022/08/28 04:03:07;;;;;;;13.70;3.37;;;;;;;;;;5093391;28;20515;-70
2022/08/28 04:05:34;;;;;;;8.87;3.73;;;;;;;;;;5093400;28;20513;-69
2022/08/28 04:08:02;;;;;;;6.87;2.93;;;;;;;;;;5094019;28;20494;-69
2022/08/28 04:10:29;;;;;;;12.73;3.27;;;;;;;;;;5092447;28;20439;-69
2022/08/28 04:12:56;;;;;;;10.10;2.70;;;;;;;;;;5092650;28;20468;-70
2022/08/28 04:15:23;;;;;;;16.13;3.27;;;;;;;;;;5093133;28;20451;-70
2022/08/28 04:17:51;;;;;;;6.67;2.63;;;;;;;;;;5093213;28;20467;-69
2022/08/28 04:20:19;;;;;;;6.17;2.20;;;;;;;;;;5092350;28;20464;-70
2022/08/28 04:22:46;;;;;;;6.33;2.30;;;;;;;;;;5093058;28;20529;-70
2022/08/28 04:25:14;;;;;;;10.57;3.03;;;;;;;;;;5092243;28;20452;-70
2022/08/28 04:27:41;;;;;;;8.27;3.03;;;;;;;;;;5091455;28;20528;-70
2022/08/28 04:30:11;;;;;;;12.37;3.30;;;;;;;;;;5093575;28;20512;-69
2022/08/28 04:33:04;;;;;;;8.60;2.53;;;;;;;;;;5091073;28;20504;-69
2022/08/28 04:35:32;;;;;;;11.47;2.80;;;;;;;;;;5092443;28;20432;-70
2022/08/28 04:37:59;;;;;;;10.47;4.63;;;;;;;;;;5093079;28;20467;-70
2022/08/28 04:40:27;;;;;;;7.13;2.93;;;;;;;;;;5091858;28;20448;-70
2022/08/28 04:42:54;;;;;;;9.03;2.83;;;;;;;;;;5093433;28;20491;-70
2022/08/28 04:45:21;;;;;;;6.10;2.83;;;;;;;;;;5092238;28;20451;-70
2022/08/28 04:47:58;;;;;;;7.00;3.23;;;;;;;;;;5092457;28;20464;-70
2022/08/28 04:50:25;;;;;;;9.90;3.20;;;;;;;;;;5092258;28;20454;-70
2022/08/28 04:52:53;;;;;;;9.97;3.23;;;;;;;;;;5092048;28;20491;-69
2022/08/28 04:55:23;;;;;;;8.37;2.87;;;;;;;;;;5092210;28;20491;-70
2022/08/28 04:57:50;;;;;;;11.90;3.33;;;;;;;;;;5092324;28;20447;-70
2022/08/28 05:00:18;;;;;;;10.83;2.53;;;;;;;;;;5092538;28;20551;-70
2022/08/28 05:02:45;;;;;;;8.40;3.10;;;;;;;;;;5091981;28;20711;-69
2022/08/28 05:05:14;;;;;;;10.60;4.27;;;;;;;;;;5091838;28;20796;-70
2022/08/28 05:07:41;;;;;;;7.40;2.60;;;;;;;;;;5092414;28;20475;-69
2022/08/28 05:10:09;;;;;;;8.97;2.90;;;;;;;;;;5091167;28;20450;-69
2022/08/28 05:12:37;;;;;;;21.30;3.67;;;;;;;;;;5091756;28;20900;-70
2022/08/28 05:15:04;;;;;;;8.93;4.03;;;;;;;;;;5091649;28;20463;-70
2022/08/28 05:17:37;;;;;;;6.47;2.93;;;;;;;;;;5090387;28;20452;-70
2022/08/28 05:20:05;;;;;;;6.80;2.63;;;;;;;;;;5091918;28;20546;-70
2022/08/28 05:22:32;;;;;;;10.53;3.63;;;;;;;;;;5091147;28;20718;-69
2022/08/28 05:25:02;;;;;;;8.27;2.83;;;;;;;;;;5091634;28;20521;-70
2022/08/28 05:27:30;;;;;;;9.03;4.07;;;;;;;;;;5092291;28;20831;-69
2022/08/28 05:29:57;;;;;;;9.23;3.27;;;;;;;;;;5092524;28;20468;-70
2022/08/28 05:32:25;;;;;;;8.73;4.00;;;;;;;;;;5091271;28;20455;-70
2022/08/28 05:34:53;;;;;;;11.73;3.90;;;;;;;;;;5092711;28;20476;-70
2022/08/28 05:37:21;;;;;;;7.53;2.90;;;;;;;;;;5091582;28;20861;-70
2022/08/28 05:39:48;;;;;;;10.67;3.70;;;;;;;;;;5092080;28;21032;-69
2022/08/28 05:42:21;;;;;;;7.63;3.20;;;;;;;;;;5091276;28;20514;-70
2022/08/28 05:44:49;;;;;;;5.73;3.10;;;;;;;;;;5094360;28;20455;-70
2022/08/28 05:47:16;;;;;;;11.67;3.53;;;;;;;;;;5094941;28;20889;-70
2022/08/28 05:49:45;;;;;;;9.20;3.27;;;;;;;;;;5094752;28;20462;-71
2022/08/28 05:52:12;;;;;;;9.60;3.10;;;;;;;;;;5095488;28;20787;-70
2022/08/28 05:54:42;;;;;;;10.37;3.63;;;;;;;;;;5096073;28;20463;-74
2022/08/28 05:57:09;;;;;;;7.27;3.70;;;;;;;;;;5095319;28;20861;-70
2022/08/28 05:59:36;;;;;;;6.73;2.87;;;;;;;;;;5091181;28;20749;-71
2022/08/28 06:02:05;;;;;;;8.23;3.27;;;;;;;;;;5091874;28;20483;-71
2022/08/28 06:04:34;;;;;;;8.07;2.90;;;;;;;;;;5094798;28;20886;-71
2022/08/28 06:07:01;;;;;;;9.13;2.73;;;;;;;;;;5095042;28;20562;-70
2022/08/28 06:09:29;;;;;;;11.30;2.87;;;;;;;;;;5090695;28;20906;-71
2022/08/28 06:11:58;;;;;;;10.27;2.73;;;;;;;;;;5073772;28;20456;-70
2022/08/28 06:14:25;;;;;;;5.63;2.33;;;;;;;;;;5074554;28;20855;-70
2022/08/28 06:16:54;;;;;;;8.67;2.53;;;;;;;;;;5083078;28;20487;-70
2022/08/28 06:19:22;;;;;;;10.20;2.90;;;;;;;;;;5094381;28;20829;-70
2022/08/28 06:21:51;;;;;;;9.63;3.30;;;;;;;;;;5093911;28;20526;-71
2022/08/28 06:24:18;;;;;;;9.33;2.50;;;;;;;;;;5093788;28;20448;-70
2022/08/28 06:26:45;;;;;;;12.53;3.00;;;;;;;;;;5093841;28;20464;-70
2022/08/28 06:29:14;;;;;;;15.47;3.90;;;;;;;;;;5094167;28;20451;-70
2022/08/28 06:31:41;;;;;;;8.27;2.30;;;;;;;;;;5093347;28;20459;-70
2022/08/28 06:34:08;;;;;;;9.53;3.43;;;;;;;;;;5093568;28;20450;-70
2022/08/28 06:36:38;;;;;;;8.97;2.30;;;;;;;;;;5094688;28;20753;-70
2022/08/28 06:39:06;;;;;;;9.20;2.93;;;;;;;;;;5094886;28;20503;-71
2022/08/28 06:41:34;;;;;;;9.73;2.73;;;;;;;;;;5075824;28;20599;-70
2022/08/28 06:44:01;;;;;;;8.00;2.70;;;;;;;;;;5080648;28;20550;-70
2022/08/28 06:46:29;;;;;;;13.13;2.83;;;;;;;;;;5094144;28;20761;-70
2022/08/28 06:48:56;;;;;;;7.97;2.37;;;;;;;;;;5094605;28;20447;-70
2022/08/28 06:51:23;;;;;;;12.00;2.80;;;;;;;;;;5094942;28;20495;-70
2022/08/28 06:53:51;;;;;;;9.13;2.93;;;;;;;;;;5092973;28;20444;-70
2022/08/28 06:56:20;;;;;;;9.77;2.80;;;;;;;;;;5093721;28;20506;-70
2022/08/28 06:58:48;;;;;;;6.63;2.80;;;;;;;;;;5094091;28;20447;-71
2022/08/28 07:01:16;;;;;;;10.50;2.93;;;;;;;;;;5093151;28;20451;-70
2022/08/28 07:03:44;;;;;;;6.23;2.57;;;;;;;;;;5095244;28;20450;-71
2022/08/28 07:06:12;;;;;;;10.13;1.83;;;;;;;;;;5094012;28;20554;-71
2022/08/28 07:08:41;;;;;;;5.80;2.43;;;;;;;;;;5094942;28;20981;-71
2022/08/28 07:11:13;;;;;;;5.87;2.13;;;;;;;;;;5081812;28;20467;-71
2022/08/28 07:13:41;;;;;;;6.70;2.00;;;;;;;;;;5073960;28;20928;-71
2022/08/28 07:16:10;;;;;;;4.90;2.10;;;;;;;;;;5072000;28;20455;-71
2022/08/28 07:18:37;;;;;;;7.10;2.47;;;;;;;;;;5073266;28;20448;-72
2022/08/28 07:21:05;;;;;;;9.80;3.40;;;;;;;;;;5080581;28;20460;-71
2022/08/28 07:23:33;;;;;;;7.40;2.17;;;;;;;;;;5093021;28;20463;-72
2022/08/28 07:26:04;;;;;;;8.40;2.27;;;;;;;;;;5093457;28;20559;-70
2022/08/28 07:28:32;;;;;;;9.50;2.23;;;;;;;;;;5094218;28;20509;-70
2022/08/28 07:31:00;;;;;;;9.90;4.10;;;;;;;;;;5093945;28;20447;-71
2022/08/28 07:33:28;;;;;;;6.30;1.83;;;;;;;;;;5093790;28;20472;-72
2022/08/28 07:35:55;;;;;;;6.80;1.90;;;;;;;;;;5093328;28;20451;-71
2022/08/28 07:38:24;;;;;;;9.77;3.03;;;;;;;;;;5087204;28;20474;-71
2022/08/28 07:40:51;;;;;;;19.67;3.10;;;;;;;;;;5092632;28;20467;-70
2022/08/28 07:46:05;;;;;;;12.07;2.33;;;;;;;;;;5089580;28;20454;-70
2022/08/28 07:48:32;;;;;;;8.30;2.37;;;;;;;;;;5090882;28;20780;-71
2022/08/28 07:51:00;;;;;;;7.40;2.40;;;;;;;;;;5092669;28;20452;-71
2022/08/28 07:53:27;;;;;;;9.50;2.20;;;;;;;;;;5090072;28;20526;-71
2022/08/28 07:55:54;;;;;;;8.50;2.00;;;;;;;;;;5091420;28;20515;-71
2022/08/28 07:58:24;;;;;;;7.27;2.00;;;;;;;;;;5091955;28;20459;-71
2022/08/28 08:00:51;;;;;;;6.40;1.80;;;;;;;;;;5092157;28;20448;-71
2022/08/28 08:03:19;;;;;;;9.03;2.20;;;;;;;;;;5091944;28;20479;-70
2022/08/28 08:05:51;;;;;;;6.10;2.50;;;;;;;;;;5090875;28;21031;-71
2022/08/28 08:08:18;;;;;;;6.90;2.87;;;;;;;;;;5074530;28;20452;-71
2022/08/28 08:10:45;;;;;;;10.60;2.13;;;;;;;;;;5075451;28;21056;-72
2022/08/28 08:13:13;;;;;;;7.57;2.90;;;;;;;;;;5091961;28;20546;-71
2022/08/28 08:15:40;;;;;;;6.33;1.90;;;;;;;;;;5089135;28;20824;-70
2022/08/28 08:18:07;;;;;;;9.50;2.40;;;;;;;;;;5089732;28;20837;-70
2022/08/28 08:20:35;;;;;;;9.30;2.23;;;;;;;;;;5089936;28;20459;-70
2022/08/28 08:23:02;;;;;;;12.97;2.80;;;;;;;;;;5089109;28;20476;-69
2022/08/28 08:25:30;;;;;;;8.07;2.30;;;;;;;;;;5090006;28;20448;-70
2022/08/28 08:27:57;;;;;;;10.13;2.60;;;;;;;;;;5090132;28;20546;-70
2022/08/28 08:30:25;;;;;;;10.67;2.37;;;;;;;;;;5090131;28;20853;-70
2022/08/28 08:32:52;;;;;;;9.00;2.40;;;;;;;;;;5089490;28;20452;-70
2022/08/28 08:35:19;;;;;;;7.90;1.77;;;;;;;;;;5089443;28;20456;-70
2022/08/28 08:37:49;;;;;;;5.07;2.07;;;;;;;;;;5086999;28;20463;-71
2022/08/28 08:40:19;;;;;;;8.97;2.30;;;;;;;;;;5090375;28;20455;-70
2022/08/28 08:42:55;;;;;;;6.60;1.80;;;;;;;;;;5089944;28;20483;-70
2022/08/28 08:45:25;;;;;;;7.87;2.50;;;;;;;;;;5091798;28;20518;-70
2022/08/28 08:47:55;;;;;;;3.50;1.23;;;;;;;;;;5081141;28;20476;-70
2022/08/28 08:50:29;;;;;;;4.83;2.00;;;;;;;;;;5069300;28;20445;-70
2022/08/28 08:53:11;;;;;;;6.20;2.37;;;;;;;;;;5086091;28;20507;-70
2022/08/28 08:55:49;;;;;;;7.90;1.90;;;;;;;;;;5091301;28;20767;-70
2022/08/28 08:58:21;;;;;;;6.43;1.60;;;;;;;;;;5090622;28;20963;-71
2022/08/28 09:00:53;;;;;;;8.47;2.23;;;;;;;;;;5090790;28;21152;-70
2022/08/28 09:03:26;;;;;;;15.47;4.00;;;;;;;;;;5086134;28;20483;-71
2022/08/28 09:05:56;;;;;;;6.77;2.10;;;;;;;;;;5090009;28;20466;-70
2022/08/28 09:08:32;;;;;;;5.67;1.53;;;;;;;;;;5071134;28;20461;-70
2022/08/28 09:11:07;;;;;;;7.83;2.77;;;;;;;;;;5077287;28;20548;-69
2022/08/28 09:13:45;;;;;;;3.63;1.37;;;;;;;;;;5089431;28;20451;-69
2022/08/28 09:16:16;;;;;;;7.77;2.40;;;;;;;;;;5088348;28;20468;-70
2022/08/28 09:18:43;;;;;;;9.40;2.20;;;;;;;;;;5082340;28;20597;-70
2022/08/28 09:21:11;;;;;;;7.37;2.00;;;;;;;;;;5074719;28;20563;-71
2022/08/28 09:23:42;;;;;;;6.63;2.47;;;;;;;;;;5074541;28;20449;-70
2022/08/28 09:26:12;;;;;;;5.63;1.97;;;;;;;;;;5075434;28;20472;-70
2022/08/28 09:28:40;;;;;;;4.97;2.10;;;;;;;;;;5074982;28;20897;-69
2022/08/28 09:31:08;;;;;;;9.43;2.37;;;;;;;;;;5073701;28;20444;-70
2022/08/28 09:33:37;;;;;;;6.27;2.43;;;;;;;;;;5073443;28;20488;-70
2022/08/28 09:36:27;;;;;;;7.53;1.97;;;;;;;;;;5073699;28;20489;-70
2022/08/28 09:39:09;;;;;;;7.17;2.90;;;;;;;;;;5074814;28;20490;-70
2022/08/28 09:44:22;;;;;;;8.30;1.80;;;;;;;;;;5073873;28;20465;-69
2022/08/28 09:46:52;;;;;;;6.73;2.10;;;;;;;;;;5074117;28;20586;-69
2022/08/28 09:49:24;;;;;;;10.60;3.30;;;;;;;;;;5073140;28;20515;-69
2022/08/28 09:51:51;;;;;;;8.03;2.10;;;;;;;;;;5072705;28;20457;-70
2022/08/28 09:54:22;;;;;;;6.63;2.03;;;;;;;;;;5082735;28;20458;-71
2022/08/28 09:56:50;;;;;;;4.60;1.77;;;;;;;;;;5092066;28;20456;-71
2022/08/28 09:59:18;;;;;;;8.10;2.30;;;;;;;;;;5094842;27;20931;-71
2022/08/28 10:01:54;;;;;;;8.80;2.27;;;;;;;;;;5092481;27;20536;-71
2022/08/28 10:04:37;;;;;;;12.73;2.57;;;;;;;;;;5091268;28;20928;-69
2022/08/28 10:07:08;;;;;;;7.20;2.23;;;;;;;;;;5073667;28;20529;-69
2022/08/28 10:09:43;;;;;;;9.93;2.27;;;;;;;;;;5088083;28;20495;-70
2022/08/28 10:12:16;;;;;;;6.37;2.13;;;;;;;;;;5088989;28;20471;-69
2022/08/28 10:14:49;;;;;;;8.73;2.63;;;;;;;;;;5085922;28;20449;-69
2022/08/28 10:17:23;;;;;;;11.97;3.90;;;;;;;;;;5090231;28;20482;-68
2022/08/28 10:19:53;;;;;;;10.83;2.03;;;;;;;;;;5082600;28;20451;-69
2022/08/28 10:22:27;;;;;;;7.17;1.93;;;;;;;;;;5092913;28;20977;-69
2022/08/28 10:25:03;;;;;;;5.50;3.33;;;;;;;;;;5087600;28;20524;-69
2022/08/28 10:27:41;;;;;;;10.50;2.20;;;;;;;;;;5092305;27;20540;-69
2022/08/28 10:30:10;;;;;;;6.17;1.80;;;;;;;;;;5076779;28;20775;-70
2022/08/28 10:32:46;;;;;;;10.00;2.40;;;;;;;;;;5093824;28;20466;-69
2022/08/28 10:35:15;;;;;;;9.87;2.70;;;;;;;;;;5090102;28;20725;-69
2022/08/28 10:37:47;;;;;;;7.43;2.37;;;;;;;;;;5090802;28;20451;-71
2022/08/28 10:40:19;;;;;;;5.43;2.17;;;;;;;;;;5091854;28;20546;-71
2022/08/28 10:42:50;;;;;;;6.23;2.03;;;;;;;;;;5093322;28;20501;-71
2022/08/28 10:45:20;;;;;;;4.37;1.47;;;;;;;;;;5093432;28;20497;-71
2022/08/28 10:47:51;;;;;;;7.03;2.57;;;;;;;;;;5090629;28;20569;-71
2022/08/28 10:50:22;;;;;;;4.63;1.90;;;;;;;;;;5090785;28;20451;-70
2022/08/28 10:52:53;;;;;;;4.90;1.80;;;;;;;;;;5091821;28;20491;-69
2022/08/28 10:55:23;;;;;;;5.97;1.60;;;;;;;;;;5092233;28;20538;-69
2022/08/28 10:57:52;;;;;;;5.10;1.87;;;;;;;;;;5092386;28;20577;-69
2022/08/28 11:00:20;;;;;;;7.30;1.80;;;;;;;;;;5090718;28;20479;-71
2022/08/28 11:02:48;;;;;;;7.00;2.00;;;;;;;;;;5090908;28;20499;-70
2022/08/28 11:05:20;;;;;;;5.90;1.50;;;;;;;;;;5090799;28;20443;-71
2022/08/28 11:07:49;;;;;;;9.73;1.93;;;;;;;;;;5090766;28;20751;-70
2022/08/28 11:10:21;;;;;;;6.23;1.20;;;;;;;;;;5090612;28;20444;-71
2022/08/28 11:12:50;;;;;;;5.53;2.97;;;;;;;;;;5092803;28;20463;-71
2022/08/28 11:15:35;;;;;;;5.03;1.70;;;;;;;;;;5094244;28;20452;-71
2022/08/28 11:18:19;;;;;;;8.80;1.50;;;;;;;;;;5100120;28;20565;-70
2022/08/28 11:20:56;;;;;;;3.70;1.63;;;;;;;;;;5104240;28;20451;-69
2022/08/28 11:23:28;;;;;;;3.80;1.80;;;;;;;;;;5092637;28;20518;-69
2022/08/28 11:29:12;;;;;;;6.10;2.00;;;;;;;;;;5085339;28;20442;-71
2022/08/28 11:31:41;;;;;;;4.50;1.53;;;;;;;;;;5094260;28;20954;-70
2022/08/28 11:34:08;;;;;;;8.70;1.57;;;;;;;;;;5093381;28;20517;-70
2022/08/28 11:36:53;;;;;;;4.07;1.90;;;;;;;;;;5089281;28;20464;-70
2022/08/28 11:39:21;;;;;;;6.50;1.60;;;;;;;;;;5070526;28;20445;-70
2022/08/28 11:42:07;;;;;;;7.10;1.63;;;;;;;;;;5085481;28;20917;-70
2022/08/28 11:44:46;;;;;;;3.03;1.23;;;;;;;;;;5090820;28;20459;-71
2022/08/28 11:47:39;;;;;;;4.57;1.50;;;;;;;;;;5071840;28;20456;-72
2022/08/28 11:50:13;;;;;;;11.67;2.00;;;;;;;;;;5071763;28;20563;-71
2022/08/28 11:52:49;;;;;;;3.90;1.53;;;;;;;;;;5071495;28;20536;-71
2022/08/28 11:55:23;;;;;;;3.17;1.30;;;;;;;;;;5072289;28;20464;-71
2022/08/28 11:57:58;;;;;;;3.57;1.37;;;;;;;;;;5070778;28;20521;-71
2022/08/28 12:00:32;;;;;;;2.80;1.20;;;;;;;;;;5071960;28;20850;-71
2022/08/28 12:03:08;;;;;;;6.23;1.53;;;;;;;;;;5083675;28;20980;-71
2022/08/28 12:05:40;;;;;;;5.37;1.70;;;;;;;;;;5086119;28;20483;-72
2022/08/28 12:08:12;;;;;;;4.13;2.00;;;;;;;;;;5077520;28;20469;-72
2022/08/28 12:11:06;;;;;;;11.20;2.57;;;;;;;;;;5071188;28;20506;-71
2022/08/28 12:13:47;;;;;;;7.27;2.00;;;;;;;;;;5025234;28;20456;-71
2022/08/28 12:16:17;;;;;;;5.30;1.70;;;;;;;;;;5071111;28;20467;-72
2022/08/28 12:19:00;;;;;;;8.10;2.10;;;;;;;;;;5078350;28;20551;-71
2022/08/28 12:21:28;;;;;;;4.53;1.90;;;;;;;;;;5087649;28;20455;-72
2022/08/28 12:24:01;;;;;;;4.80;1.83;;;;;;;;;;5089674;28;20990;-72
2022/08/28 12:26:30;;;;;;;4.70;1.60;;;;;;;;;;5088971;28;20448;-72
2022/08/28 12:28:58;;;;;;;8.73;2.10;;;;;;;;;;5091519;28;20447;-70
2022/08/28 12:34:36;;;;;;;4.97;1.70;;;;;;;;;;5080241;28;20546;-71
2022/08/28 12:37:04;;;;;;;10.50;2.77;;;;;;;;;;5089610;28;20729;-71
2022/08/28 12:39:33;;;;;;;8.73;2.80;;;;;;;;;;5090436;28;20461;-71
2022/08/28 12:42:02;;;;;;;8.47;1.80;;;;;;;;;;5079509;28;20499;-72
2022/08/28 12:44:33;;;;;;;5.90;1.93;;;;;;;;;;5086160;28;20482;-72
2022/08/28 12:47:03;;;;;;;4.80;1.67;;;;;;;;;;5078302;28;20611;-72
2022/08/28 12:49:33;;;;;;;8.67;1.87;;;;;;;;;;5078921;28;20455;-71
2022/08/28 12:52:15;;;;;;;13.83;3.80;;;;;;;;;;5076471;28;20543;-71
2022/08/28 12:54:57;;;;;;;7.03;2.00;;;;;;;;;;5092169;28;20507;-71
2022/08/28 12:57:24;;;;;;;5.00;1.83;;;;;;;;;;5089852;28;20843;-70
2022/08/28 12:59:52;;;;;;;5.30;2.00;;;;;;;;;;5096496;28;20846;-71
2022/08/28 13:02:23;;;;;;;9.27;2.23;;;;;;;;;;5092907;28;20491;-71
2022/08/28 13:04:53;;;;;;;8.90;2.60;;;;;;;;;;5091993;28;20459;-72
2022/08/28 13:07:27;;;;;;;7.53;2.70;;;;;;;;;;5093027;28;20455;-71
2022/08/28 13:09:56;;;;;;;5.67;1.83;;;;;;;;;;5090753;28;20466;-72
2022/08/28 13:12:27;;;;;;;13.57;2.87;;;;;;;;;;5086717;28;20553;-72
2022/08/28 13:14:57;;;;;;;6.43;1.77;;;;;;;;;;5081224;28;20964;-72
2022/08/28 13:17:49;;;;;;;8.93;2.70;;;;;;;;;;5090559;28;20465;-72
2022/08/28 13:20:28;;;;;;;6.57;2.33;;;;;;;;;;5091591;28;20454;-71
2022/08/28 13:22:55;;;;;;;6.27;1.80;;;;;;;;;;5093027;28;20589;-71
2022/08/28 13:25:24;;;;;;;6.13;2.13;;;;;;;;;;5092579;28;20443;-71
2022/08/28 13:27:58;;;;;;;6.00;1.93;;;;;;;;;;5093399;28;20463;-71
2022/08/28 13:30:28;;;;;;;7.23;3.20;;;;;;;;;;5081675;28;20463;-71
2022/08/28 13:32:56;;;;;;;8.97;2.80;;;;;;;;;;5072259;28;20475;-71
2022/08/28 13:35:40;;;;;;;7.63;2.10;;;;;;;;;;5078118;28;20896;-71
2022/08/28 13:38:09;;;;;;;10.97;2.60;;;;;;;;;;5092652;28;20467;-70
2022/08/28 13:40:41;;;;;;;8.37;2.70;;;;;;;;;;5091826;28;20455;-71
2022/08/28 13:43:09;;;;;;;5.50;1.97;;;;;;;;;;5092646;28;20898;-71
2022/08/28 13:45:37;;;;;;;6.20;2.40;;;;;;;;;;5091536;28;21037;-71
2022/08/28 13:48:07;;;;;;;6.57;2.37;;;;;;;;;;5076292;28;20456;-71
2022/08/28 13:50:37;;;;;;;8.07;2.30;;;;;;;;;;5072596;28;20448;-71
2022/08/28 13:53:07;;;;;;;7.23;2.50;;;;;;;;;;5072575;28;20484;-71
2022/08/28 13:55:36;;;;;;;8.10;2.77;;;;;;;;;;5077519;28;20733;-71
2022/08/28 13:58:06;;;;;;;5.10;2.03;;;;;;;;;;5077832;28;20452;-71
2022/08/28 14:00:38;;;;;;;5.87;2.83;;;;;;;;;;5071899;28;20455;-71
2022/08/28 14:05:50;;;;;;;5.40;2.17;;;;;;;;;;5076350;28;20620;-71
2022/08/28 14:08:22;;;;;;;6.23;2.00;;;;;;;;;;5092399;28;20447;-71
2022/08/28 14:10:52;;;;;;;11.47;2.97;;;;;;;;;;5090306;28;20502;-72
2022/08/28 14:13:21;;;;;;;6.10;2.40;;;;;;;;;;5072283;28;20530;-71
2022/08/28 14:15:48;;;;;;;7.57;2.67;;;;;;;;;;5076811;28;20452;-72
2022/08/28 14:18:16;;;;;;;7.00;2.50;;;;;;;;;;5090402;28;20470;-72
2022/08/28 14:20:44;;;;;;;6.03;2.30;;;;;;;;;;5090874;28;20443;-72
2022/08/28 14:23:12;;;;;;;8.30;2.67;;;;;;;;;;5091098;27;20913;-72
2022/08/28 14:25:42;;;;;;;7.63;2.63;;;;;;;;;;5091922;28;20439;-72
2022/08/28 14:28:13;;;;;;;8.47;2.37;;;;;;;;;;5091991;28;20811;-72
2022/08/28 14:30:41;;;;;;;8.80;2.67;;;;;;;;;;5092630;28;20450;-72
2022/08/28 14:33:09;;;;;;;6.90;2.50;;;;;;;;;;5091683;28;20456;-72
2022/08/28 14:35:39;;;;;;;7.33;2.20;;;;;;;;;;5093002;28;20901;-72
2022/08/28 14:38:06;;;;;;;13.33;3.50;;;;;;;;;;5093137;28;20866;-71
2022/08/28 14:40:37;;;;;;;10.53;2.67;;;;;;;;;;5092275;28;20560;-72
2022/08/28 14:43:05;;;;;;;7.40;2.90;;;;;;;;;;5092720;28;20476;-72
2022/08/28 14:45:32;;;;;;;7.83;1.97;;;;;;;;;;5093399;28;20513;-72
2022/08/28 14:48:01;;;;;;;5.40;2.00;;;;;;;;;;5075367;28;20864;-73
2022/08/28 14:50:28;;;;;;;8.47;3.17;;;;;;;;;;5072987;28;20456;-72
2022/08/28 14:52:55;;;;;;;8.17;2.47;;;;;;;;;;5072821;28;20448;-72
2022/08/28 14:55:26;;;;;;;6.53;2.77;;;;;;;;;;5078880;28;20528;-73
2022/08/28 14:57:54;;;;;;;8.37;2.43;;;;;;;;;;5092273;28;20448;-71
2022/08/28 15:00:22;;;;;;;6.93;2.30;;;;;;;;;;5091752;28;20471;-72
2022/08/28 15:02:49;;;;;;;9.23;2.77;;;;;;;;;;5087685;28;20519;-73
2022/08/28 15:05:17;;;;;;;7.40;2.70;;;;;;;;;;5090980;28;20455;-71
2022/08/28 15:07:53;;;;;;;8.67;2.13;;;;;;;;;;5090667;28;20474;-71
2022/08/28 15:10:22;;;;;;;7.03;1.87;;;;;;;;;;5091997;28;20493;-73